Oelwein, IA

4:22 PM CST on November 21, 2019 (GMT -0600)
Oelwein Municipal

Weather History for KOLZ - October, 2019

Change the Weather History Date:

Saturday, October 12, 2019

  Actual Average Record
Temperature  
Mean Temperature 37 °F -  
Max Temperature 46 °F 60 °F 86 °F (1975)
Min Temperature 28 °F 39 °F 23 °F (1988)
Degree Days  
Heating Degree Days 28    
Moisture  
Dew Point 30 °F    
Average Humidity 82    
Maximum Humidity 100    
Minimum Humidity 46    
Precipitation  
Precipitation 0.01 in - - ()
Sea Level Pressure  
Sea Level Pressure 29.84 in    
Wind  
Wind Speed 17 mph (WSW)    
Max Wind Speed 25 mph    
Max Gust Speed 34 mph    
Visibility 10 miles    
Events      
Averages and records for this station are not official NWS values.
T = Trace of Precipitation, MM = Missing Value Source: NWS Daily Summary

Daily Weather History Graph

Daily Weather History Graph

Search for Another Location

Airport or City:

Astronomy

Oct. 12, 2019 Rise Set
Actual Time 7:17 AM CDT 6:30 PM CDT
Civil Twilight 6:48 AM CDT 6:59 PM CDT
Nautical Twilight 6:16 AM CDT 7:31 PM CDT
Astronomical Twilight 5:43 AM CDT 8:04 PM CDT
Moon 6:29 PM CDT (10/12) 5:51 AM CDT (10/12)
Length of Visible Light 12h 10m
Length of Day
11h 13m
Waxing Gibbous, 99% of the Moon is Illuminated
Oct 12
Waxing Gibbous
Oct 13
Full
Oct 21
Last Quarter
Oct 27
New
Nov 4
First Quarter

Hourly Weather History & Observations

Time (CDT) Temp. Windchill Dew Point Humidity Pressure Visibility Wind Dir Wind Speed Gust Speed Precip Events Conditions
12:15 AM 35.6 °F 24.5 °F 26.6 °F 70% 29.97 in 10.0 mi WSW 20.7 mph - N/A   Partly Cloudy
12:35 AM 33.8 °F 22.2 °F 26.6 °F 75% 29.96 in 10.0 mi WSW 20.7 mph 26.5 mph N/A   Clear
12:55 AM 33.8 °F 22.8 °F 26.6 °F 75% 29.96 in 10.0 mi WSW 18.4 mph 25.3 mph N/A   Clear
1:15 AM 33.8 °F 22.8 °F 26.6 °F 75% 29.96 in 10.0 mi WSW 18.4 mph - N/A   Clear
1:35 AM 32.0 °F 20.1 °F 26.6 °F 80% 29.95 in 10.0 mi WSW 19.6 mph - N/A   Clear
1:55 AM 32.0 °F 22.5 °F 26.6 °F 80% 29.95 in 10.0 mi WSW 12.7 mph 19.6 mph N/A   Clear
2:15 AM 32.0 °F 22.5 °F 26.6 °F 80% 29.95 in 10.0 mi WSW 12.7 mph - N/A   Clear
2:35 AM 32.0 °F 23.0 °F 26.6 °F 80% 29.94 in 10.0 mi SW 11.5 mph - N/A   Clear
2:55 AM 32.0 °F 22.1 °F 26.6 °F 80% 29.93 in 10.0 mi SW 13.8 mph - N/A   Clear
3:15 AM 32.0 °F 22.1 °F 26.6 °F 80% 29.93 in 10.0 mi SW 13.8 mph - N/A   Clear
3:35 AM 32.0 °F 21.6 °F 26.6 °F 80% 29.92 in 10.0 mi SW 15.0 mph - N/A   Clear
3:55 AM 30.2 °F 20.2 °F 26.6 °F 86% 29.92 in 10.0 mi SW 12.7 mph - N/A   Clear
4:15 AM 30.2 °F 19.8 °F 26.6 °F 86% 29.92 in 10.0 mi SW 13.8 mph - N/A   Clear
4:35 AM 30.2 °F 19.8 °F 26.6 °F 86% 29.92 in 10.0 mi SW 13.8 mph - N/A   Clear
4:55 AM 30.2 °F 19.3 °F 26.6 °F 86% 29.91 in 10.0 mi SW 15.0 mph - N/A   Clear
5:15 AM 30.2 °F 20.8 °F 26.6 °F 86% 29.91 in 10.0 mi SW 11.5 mph 18.4 mph N/A   Clear
5:35 AM 30.2 °F 20.8 °F 26.6 °F 86% 29.91 in 10.0 mi SW 11.5 mph 18.4 mph N/A   Clear
5:55 AM 30.2 °F 19.3 °F 26.6 °F 86% 29.91 in 10.0 mi SW 15.0 mph - N/A   Clear
6:15 AM 30.2 °F 20.2 °F 26.6 °F 86% 29.90 in 10.0 mi SW 12.7 mph 18.4 mph N/A   Clear
6:35 AM 28.4 °F 19.1 °F 26.6 °F 93% 29.90 in 10.0 mi SSW 10.4 mph - N/A   Clear
6:55 AM 28.4 °F 18.0 °F 26.6 °F 93% 29.89 in 10.0 mi SW 12.7 mph - N/A   Clear
7:15 AM 28.4 °F 16.6 °F 26.6 °F 93% 29.88 in 10.0 mi SSW 16.1 mph - N/A   Clear
7:35 AM 28.4 °F 17.0 °F 26.6 °F 93% 29.88 in 10.0 mi SW 15.0 mph - N/A   Clear
7:55 AM 30.2 °F 19.3 °F 26.6 °F 86% 29.88 in 10.0 mi SW 15.0 mph 21.9 mph N/A   Clear
8:15 AM 30.2 °F 19.3 °F 26.6 °F 86% 29.88 in 10.0 mi SW 15.0 mph 21.9 mph N/A   Clear
8:35 AM 32.0 °F 22.5 °F 26.6 °F 80% 29.87 in 10.0 mi SW 12.7 mph 24.2 mph N/A   Clear
8:55 AM 33.8 °F 22.5 °F 26.6 °F 75% 29.86 in 10.0 mi SW 19.6 mph 27.6 mph N/A   Clear
9:15 AM 35.6 °F 24.8 °F 28.4 °F 75% 29.85 in 10.0 mi SW 19.6 mph - N/A   Clear
9:35 AM 35.6 °F 24.8 °F 28.4 °F 75% 29.85 in 10.0 mi SW 19.6 mph - N/A   Clear
9:55 AM 37.4 °F 27.2 °F 28.4 °F 70% 29.84 in 10.0 mi WSW 19.6 mph 25.3 mph N/A   Clear
10:15 AM 37.4 °F 27.2 °F 26.6 °F 65% 29.83 in 10.0 mi SW 19.6 mph 32.2 mph N/A   Clear
10:35 AM 41.0 °F 31.4 °F 28.4 °F 61% 29.84 in 10.0 mi SW 21.9 mph 31.1 mph N/A   Clear
10:55 AM 41.0 °F 30.7 °F 26.6 °F 57% 29.83 in 10.0 mi SW 25.3 mph 32.2 mph N/A   Clear
11:15 AM 41.0 °F 31.4 °F 26.6 °F 57% 29.81 in 10.0 mi SW 21.9 mph 33.4 mph N/A   Clear
11:35 AM 42.8 °F 33.1 °F 26.6 °F 53% 29.80 in 10.0 mi SW 25.3 mph 33.4 mph N/A   Clear
11:55 AM 42.8 °F 34.5 °F 26.6 °F 53% 29.80 in 10.0 mi WSW 18.4 mph 29.9 mph N/A   Clear
12:15 PM 44.6 °F 35.7 °F 26.6 °F 49% 29.79 in 10.0 mi WSW 24.2 mph 34.5 mph N/A   Partly Cloudy
12:35 PM 44.6 °F 36.4 °F 26.6 °F 49% 29.79 in 10.0 mi WSW 20.7 mph 28.8 mph N/A   Mostly Cloudy
12:55 PM 44.6 °F 37.2 °F 28.4 °F 53% 29.77 in 10.0 mi WSW 17.3 mph 26.5 mph N/A   Mostly Cloudy
1:15 PM 46.4 °F 38.3 °F 26.6 °F 46% 29.77 in 10.0 mi WSW 23.0 mph 28.8 mph N/A   Clear
1:35 PM 46.4 °F 40.1 °F 28.4 °F 50% 29.76 in 10.0 mi West 15.0 mph 27.6 mph N/A   Partly Cloudy
1:55 PM 46.4 °F 39.0 °F 26.6 °F 46% 29.76 in 10.0 mi West 19.6 mph 28.8 mph N/A   Partly Cloudy
2:15 PM 44.6 °F 37.4 °F 26.6 °F 49% 29.76 in 10.0 mi West 16.1 mph - N/A   Clear
2:35 PM 42.8 °F 34.8 °F 28.4 °F 57% 29.77 in 10.0 mi WNW 17.3 mph - N/A   Clear
2:55 PM 41.0 °F 33.1 °F 32.0 °F 70% 29.77 in 10.0 mi NW 15.0 mph 23.0 mph N/A   Clear
3:15 PM 39.2 °F 29.3 °F 33.8 °F 81% 29.78 in 10.0 mi NW 20.7 mph 28.8 mph N/A   Clear
3:35 PM 39.2 °F 29.6 °F 35.6 °F 87% 29.79 in 10.0 mi WNW 19.6 mph 27.6 mph N/A   Clear
3:55 PM 37.4 °F 27.2 °F 37.4 °F 100% 29.80 in 5.0 mi West 19.6 mph 28.8 mph N/A   Clear
4:15 PM 37.4 °F 27.5 °F 37.4 °F 100% 29.80 in 7.0 mi West 18.4 mph 27.6 mph N/A   Partly Cloudy
4:35 PM 37.4 °F 26.9 °F 37.4 °F 100% 29.80 in 8.0 mi West 20.7 mph 27.6 mph N/A   Scattered Clouds
4:55 PM 37.4 °F 29.8 °F 37.4 °F 100% 29.81 in 8.0 mi WNW 11.5 mph 20.7 mph 0.01 in   Scattered Clouds
5:15 PM 35.6 °F 26.6 °F 35.6 °F 100% 29.79 in 10.0 mi NW 13.8 mph 21.9 mph N/A   Partly Cloudy
5:35 PM 35.6 °F 26.2 °F 35.6 °F 100% 29.79 in 10.0 mi WNW 15.0 mph - N/A   Scattered Clouds
5:55 PM 37.4 °F 28.5 °F 35.6 °F 93% 29.79 in 10.0 mi WNW 15.0 mph 23.0 mph N/A   Scattered Clouds
6:15 PM 37.4 °F 29.3 °F 37.4 °F 100% 29.80 in 10.0 mi West 12.7 mph 18.4 mph N/A   Mostly Cloudy
6:35 PM 37.4 °F 29.3 °F 37.4 °F 100% 29.80 in 10.0 mi West 12.7 mph 23.0 mph N/A   Overcast
6:55 PM 37.4 °F 28.9 °F 37.4 °F 100% 29.81 in 10.0 mi WNW 13.8 mph 19.6 mph N/A   Overcast
7:15 PM 37.4 °F 29.8 °F 37.4 °F 100% 29.81 in 10.0 mi West 11.5 mph 19.6 mph N/A   Overcast
7:35 PM 37.4 °F 28.2 °F 37.4 °F 100% 29.81 in 10.0 mi WNW 16.1 mph - N/A   Overcast
7:55 PM 35.6 °F 26.6 °F 35.6 °F 100% 29.81 in 10.0 mi West 13.8 mph 21.9 mph N/A   Overcast
8:15 PM 35.6 °F 26.6 °F 35.6 °F 100% 29.81 in 10.0 mi West 13.8 mph 25.3 mph N/A   Overcast
8:35 PM 35.6 °F 25.2 °F 35.6 °F 100% 29.81 in 10.0 mi WNW 18.4 mph - N/A   Overcast
8:55 PM 35.6 °F 27.5 °F 35.6 °F 100% 29.81 in 10.0 mi West 11.5 mph 21.9 mph N/A   Overcast
9:15 PM 35.6 °F 26.6 °F 35.6 °F 100% 29.82 in 9.0 mi West 13.8 mph 20.7 mph N/A   Overcast
9:35 PM 33.8 °F 24.8 °F 33.8 °F 100% 29.81 in 10.0 mi West 12.7 mph - N/A   Overcast
9:55 PM 33.8 °F 24.3 °F 33.8 °F 100% 29.81 in 10.0 mi West 13.8 mph 19.6 mph N/A   Overcast
10:15 PM 35.6 °F 27.1 °F 35.6 °F 100% 29.81 in 10.0 mi West 12.7 mph - N/A   Overcast
10:35 PM 33.8 °F 24.3 °F 33.8 °F 100% 29.80 in 10.0 mi West 13.8 mph - N/A   Overcast
10:55 PM 33.8 °F 25.8 °F 33.8 °F 100% 29.81 in 10.0 mi West 10.4 mph 17.3 mph N/A   Overcast
11:15 PM 33.8 °F 25.8 °F 33.8 °F 100% 29.79 in 10.0 mi West 10.4 mph - N/A   Overcast
11:35 PM 33.8 °F 25.3 °F 33.8 °F 100% 29.79 in 10.0 mi WSW 11.5 mph - N/A   Overcast
11:55 PM 33.8 °F 26.4 °F 33.8 °F 100% 29.79 in 10.0 mi WSW 9.2 mph - N/A   Mostly Cloudy